Have a Safe July 4th! 

Flight Track Log - Related Links

Times and Time Zones

All times are in EDT time to prevent confusion due to time zone crossing. See the AAL1482 flight status page for this flight to view local times or setup timezone preferences in your user account.

Time Position Orientation Groundspeed Altitude Reporting Facility
EDT Latitude Longitude Course Direction KTS MPH feet Rate Location/Type
Thu 09:58:34 PM 36.1047 -115.1508 84° East 149 171 3,100  Level Los Angeles Center
Thu 09:59:16 PM 36.1317 -115.1258 37° Northeast 189 217 4,500 2,505 Climbing Los Angeles Center
Thu 10:00:00 PM 35.8735 -115.2600 161° South  Level FlightAware Approximate
Thu 10:00:17 PM 36.1381 -115.0358 85° East 262 302 7,400  Level Los Angeles Center
Thu 10:01:00 PM 35.8264 -115.1202 103° East  Level FlightAware Approximate
Thu 10:01:19 PM 36.1433 -114.9356 86° East 276 318 10,700  Level Los Angeles Center
Thu 10:02:00 PM 35.8265 -114.9586 84° East  Level FlightAware Approximate
Thu 10:02:21 PM 36.1075 -114.8264 112° Southeast 337 388 12,900  Level Los Angeles Center
Thu 10:03:00 PM 35.8393 -114.7958 84° East  Level FlightAware Approximate
Thu 10:03:23 PM 36.0714 -114.7089 111° Southeast 360 414 15,300  Level Los Angeles Center
Thu 10:04:24 PM 36.0328 -114.5836 111° Southeast 384 442 17,500 2,000 Climbing Los Angeles Center
Thu 10:05:26 PM 36.0000 -114.4519 107° East 397 457 19,400 1,887 Climbing Los Angeles Center
Thu 10:06:28 PM 35.9825 -114.3125 99° East 409 471 21,400 1,984 Climbing Los Angeles Center
Thu 10:07:30 PM 35.9628 -114.1706 100° East 417 480 23,500 2,195 Climbing Los Angeles Center
Thu 10:08:31 PM 35.9367 -113.9956 100° East 430 495 25,900 2,049 Climbing Los Angeles Center
Thu 10:09:33 PM 35.9133 -113.8408 101° East 452 520 27,700 1,742 Climbing Los Angeles Center
Thu 10:10:35 PM 35.8883 -113.6828 101° East 466 536 29,500 1,597 Climbing Los Angeles Center
Thu 10:11:37 PM 35.8625 -113.5172 101° East 481 554 31,000 1,756 Climbing Los Angeles Center
Thu 10:12:38 PM 35.8358 -113.3506 101° East 492 566 33,100 1,951 Climbing Los Angeles Center
Thu 10:13:40 PM 35.8100 -113.1875 101° East 488 562 35,000 1,500 Climbing Los Angeles Center
Thu 10:14:42 PM 35.7836 -113.0239 101° East 486 559 36,200 1,258 Climbing Los Angeles Center
Thu 10:15:44 PM 35.7622 -112.8544 99° East 496 571 37,600 1,065 Climbing Los Angeles Center
Thu 10:16:46 PM 35.7522 -112.6858 94° East 493 567 38,400 726 Climbing Los Angeles Center
Thu 10:17:48 PM 35.7406 -112.4786 94° East 503 579 39,100 683 Climbing Los Angeles Center
Thu 10:18:49 PM 35.7292 -112.3042 95° East 511 588 39,800 634 Climbing Los Angeles Center
Thu 10:19:51 PM 35.7178 -112.1297 95° East 511 588 40,400 581 Climbing Los Angeles Center
Thu 10:20:53 PM 35.7069 -111.9556 94° East 511 588 41,000 339 Climbing Los Angeles Center
Thu 10:21:55 PM 35.6939 -111.7817 95° East 511 588 41,100 48 Climbing Los Angeles Center
Thu 10:22:57 PM 35.6831 -111.6003 94° East 506 582 41,100  Level Los Angeles Center
Thu 10:23:41 PM 35.6731 -111.4711 95° East 507 583 41,100  Level Albuquerque Center
Thu 10:24:43 PM 35.6622 -111.2886 94° East 507 583 41,100  Level Albuquerque Center
Thu 10:25:44 PM 35.6522 -111.1231 94° East 508 585 41,100  Level Albuquerque Center
Thu 10:26:46 PM 35.6378 -110.9292 95° East 509 586 41,100  Level Albuquerque Center
Thu 10:27:47 PM 35.6244 -110.7622 96° East 511 588 41,100  Level Albuquerque Center
Thu 10:28:48 PM 35.6092 -110.5658 95° East 515 593 41,100  Level Albuquerque Center
Thu 10:29:50 PM 35.5981 -110.3978 95° East 516 594 41,100  Level Albuquerque Center
Thu 10:30:51 PM 35.5825 -110.1986 95° East 522 601 41,100  Level Albuquerque Center
Thu 10:31:53 PM 35.5694 -110.0292 95° East 522 601 41,100  Level Albuquerque Center
Thu 10:32:54 PM 35.5564 -109.8592 95° East 523 602 41,100  Level Albuquerque Center
Thu 10:33:55 PM 35.5417 -109.6628 95° East 520 598 41,100  Level Albuquerque Center
Thu 10:34:57 PM 35.5283 -109.4933 95° East 521 600 41,100  Level Albuquerque Center
Thu 10:35:58 PM 35.5117 -109.2933 96° East 528 608 41,100  Level Albuquerque Center
Thu 10:37:00 PM 35.4978 -109.1253 96° East 523 602 41,100  Level Albuquerque Center
Thu 10:38:01 PM 35.4842 -108.9547 96° East 526 605 41,100  Level Albuquerque Center
Thu 10:39:02 PM 35.4550 -108.7564 100° East 531 611 41,100  Level Albuquerque Center
Thu 10:40:04 PM 35.4217 -108.5881 104° East 533 613 41,100  Level Albuquerque Center
Thu 10:41:05 PM 35.3822 -108.3919 104° East 533 613 41,100  Level Albuquerque Center
Thu 10:42:06 PM 35.3483 -108.2225 104° East 535 616 41,100  Level Albuquerque Center
Thu 10:43:08 PM 35.3078 -108.0247 104° East 537 618 41,100  Level Albuquerque Center
Thu 10:44:09 PM 35.2731 -107.8553 104° East 537 618 41,100  Level Albuquerque Center
Thu 10:45:11 PM 35.2375 -107.6858 104° East 538 619 41,100 -49 Level Albuquerque Center
Thu 10:46:12 PM 35.1947 -107.4875 105° East 540 621 41,000  Descending Albuquerque Center
Thu 10:47:13 PM 35.1536 -107.3064 105° East 540 621 41,100 49 Climbing Albuquerque Center
Thu 10:48:15 PM 35.1147 -107.1194 104° East 542 624 41,100  Level Albuquerque Center
Thu 10:49:16 PM 35.0783 -106.9489 105° East 542 624 41,100  Level Albuquerque Center
Thu 10:50:17 PM 35.0406 -106.7825 105° East 534 615 41,100  Level Albuquerque Center
Thu 10:51:19 PM 35.0164 -106.5814 98° East 534 615 41,100  Level Albuquerque Center
Thu 10:52:20 PM 34.9950 -106.3914 98° East 550 633 41,100 -49 Level Albuquerque Center
Thu 10:53:22 PM 34.9722 -106.2122 99° East 540 621 41,000  Descending Albuquerque Center
Thu 10:54:23 PM 34.9494 -106.0331 99° East 536 617 41,100 49 Climbing Albuquerque Center
Thu 10:55:24 PM 34.9272 -105.8558 99° East 534 615 41,100  Level Albuquerque Center
Thu 10:56:26 PM 34.9031 -105.6758 99° East 534 615 41,100  Level Albuquerque Center
Thu 10:57:27 PM 34.8781 -105.4947 100° East 537 618 41,100  Level Albuquerque Center
Thu 10:58:29 PM 34.8528 -105.3125 100° East 541 623 41,100  Level Albuquerque Center
Thu 10:59:30 PM 34.8239 -105.1022 99° East 539 620 41,100  Level Albuquerque Center
Thu 11:00:31 PM 34.7986 -104.9192 99° East 542 624 41,100  Level Albuquerque Center
Thu 11:01:33 PM 34.7736 -104.7381 99° East 543 625 41,100  Level Albuquerque Center
Thu 11:02:34 PM 34.7483 -104.5572 100° East 541 623 41,100  Level Albuquerque Center
Thu 11:03:36 PM 34.7228 -104.3758 100° East 542 624 41,100  Level Albuquerque Center
Thu 11:04:37 PM 34.6964 -104.1917 100° East 549 632 41,100  Level Albuquerque Center
Thu 11:05:39 PM 34.6714 -104.0086 99° East 550 633 41,100  Level Albuquerque Center
Thu 11:06:40 PM 34.6436 -103.8261 100° East 548 631 41,100  Level Albuquerque Center
Thu 11:07:42 PM 34.6133 -103.6119 100° East 548 631 41,100  Level Albuquerque Center
Thu 11:08:43 PM 34.5869 -103.4286 100° East 549 632 41,100  Level Albuquerque Center
Thu 11:09:45 PM 34.5586 -103.2444 101° East 552 635 41,100  Level Albuquerque Center
Thu 11:10:46 PM 34.5317 -103.0600 100° East 552 635 41,100  Level Albuquerque Center
Thu 11:11:48 PM 34.5019 -102.8747 101° East 554 638 41,100  Level Albuquerque Center
Thu 11:12:49 PM 34.4800 -102.7008 99° East 557 641 41,100  Level Albuquerque Center
Thu 11:13:50 PM 34.4619 -102.5153 97° East 559 643 41,100  Level Albuquerque Center
Thu 11:14:52 PM 34.4397 -102.2919 97° East 560 644 41,100  Level Albuquerque Center
Thu 11:15:53 PM 34.4200 -102.1053 97° East 562 647 41,100  Level Albuquerque Center
Thu 11:16:55 PM 34.4006 -101.9200 97° East 561 646 41,100  Level Albuquerque Center
Thu 11:17:56 PM 34.3800 -101.7342 98° East 561 646 41,100  Level Albuquerque Center
Thu 11:18:27 PM 34.3672 -101.6275 98° East 560 644 41,100  Level Fort Worth Center
Thu 11:19:27 PM 34.3497 -101.4658 97° East 559 643 41,100  Level Fort Worth Center
Thu 11:20:27 PM 34.3186 -101.2631 100° East 549 632 41,100  Level Fort Worth Center
Thu 11:21:27 PM 34.2858 -101.1033 104° East 544 626 41,100  Level Fort Worth Center
Thu 11:22:27 PM 34.2456 -100.9081 104° East 544 626 41,100  Level Fort Worth Center
Thu 11:23:27 PM 34.2086 -100.7308 104° East 544 626 41,100  Level Fort Worth Center
Thu 11:24:27 PM 34.1692 -100.5561 105° East 544 626 41,100  Level Fort Worth Center
Thu 11:25:27 PM 34.1392 -100.4172 105° East 538 619 41,100  Level Fort Worth Center
Thu 11:26:27 PM 34.0978 -100.2250 105° East 538 619 41,100  Level Fort Worth Center
Thu 11:27:27 PM 34.0558 -100.0508 106° East 538 619 41,100  Level Fort Worth Center
Thu 11:28:27 PM 34.0175 -99.8742 105° East 538 619 41,100  Level Fort Worth Center
Thu 11:29:27 PM 33.9772 -99.6978 105° East 540 621 41,100 -150 Level Fort Worth Center
Thu 11:30:27 PM 33.9300 -99.5236 108° East 540 621 40,800 -1,150 Descending Fort Worth Center
Thu 11:31:27 PM 33.8808 -99.3525 109° East 545 627 38,800 -2,000 Descending Fort Worth Center
Thu 11:32:27 PM 33.8292 -99.1664 108° East 538 619 36,800 -2,050 Descending Fort Worth Center
Thu 11:33:27 PM 33.7792 -99.0028 110° East 527 606 34,700 -2,200 Descending Fort Worth Center
Thu 11:34:27 PM 33.7353 -98.8372 108° East 527 606 32,400 -2,600 Descending Fort Worth Center
Thu 11:35:27 PM 33.6828 -98.6667 110° East 532 612 29,500 -2,600 Descending Fort Worth Center
Thu 11:36:27 PM 33.6406 -98.5114 108° East 537 618 27,200 -2,200 Descending Fort Worth Center
Thu 11:37:27 PM 33.5917 -98.3411 109° East 542 624 25,100 -1,100 Descending Fort Worth Center
Thu 11:38:27 PM 33.5408 -98.1711 110° East 513 590 25,000 -1,700 Descending Fort Worth Center
Thu 11:39:27 PM 33.4978 -98.0311 110° East 461 531 21,700 -3,050 Descending Fort Worth Center
Thu 11:40:27 PM 33.4525 -97.8817 110° East 456 525 18,900 -2,850 Descending Fort Worth Center
Thu 11:41:27 PM 33.4092 -97.7344 109° East 471 542 16,000 -2,400 Descending Fort Worth Center
Thu 11:42:27 PM 33.3572 -97.6125 117° Southeast 434 499 14,100 -2,300 Descending Fort Worth Center
Thu 11:43:27 PM 33.2883 -97.5278 134° Southeast 384 442 11,400 -1,500 Descending Fort Worth Center
Thu 11:44:27 PM 33.2258 -97.4581 137° Southeast 348 400 11,100 -200 Descending Fort Worth Center
Thu 11:45:27 PM 33.1528 -97.3736 136° Southeast 330 380 11,000 -50 Descending Fort Worth Center
Thu 11:46:27 PM 33.0964 -97.3069 135° Southeast 325 374 11,000  Level Fort Worth Center
Thu 11:47:27 PM 33.0233 -97.2228 136° Southeast 330 380 11,000 -150 Level Fort Worth Center
Thu 11:48:27 PM 32.9708 -97.1658 138° Southeast 303 349 10,700 -750 Descending Fort Worth Center
Thu 11:49:27 PM 32.8917 -97.1661 180° South 264 304 9,500 -1,150 Descending Fort Worth Center
Thu 11:50:27 PM 32.8206 -97.1686 182° South 258 297 8,400 -1,500 Descending Fort Worth Center
Thu 11:51:27 PM 32.7517 -97.1564 172° South 253 291 6,500 -1,250 Descending Fort Worth Center
Thu 11:52:27 PM 32.6972 -97.1222 152° Southeast 245 282 5,900 -786 Descending Fort Worth Center
Thu 11:52:51 PM 32.6833 -97.0833 113° Southeast 222 255 5,400 -1,250 Descending Dallas / Fort Worth TRACON

Login

Don't have an account? Register now (free) for customized features, flight alerts, and more!